sensor_id;sensor_type;location;lat;lon;timestamp;pressure;altitude;pressure_sealevel;temperature;humidity
72612;BME280;60655;52.182;4.474;2023-04-26T00:00:19;101911.59;;;6.10;73.12
72612;BME280;60655;52.182;4.474;2023-04-26T00:02:20;101909.41;;;5.97;73.26
72612;BME280;60655;52.182;4.474;2023-04-26T00:04:21;101914.84;;;5.96;73.42
72612;BME280;60655;52.182;4.474;2023-04-26T00:06:22;101910.66;;;5.85;73.83
72612;BME280;60655;52.182;4.474;2023-04-26T00:08:23;101923.28;;;6.07;74.29
72612;BME280;60655;52.182;4.474;2023-04-26T00:10:23;101919.66;;;6.00;73.80
72612;BME280;60655;52.182;4.474;2023-04-26T00:12:24;101916.22;;;5.82;74.14
72612;BME280;60655;52.182;4.474;2023-04-26T00:14:25;101913.28;;;5.77;74.54
72612;BME280;60655;52.182;4.474;2023-04-26T00:16:26;101911.09;;;5.72;74.74
72612;BME280;60655;52.182;4.474;2023-04-26T00:18:27;101921.53;;;5.56;75.35
72612;BME280;60655;52.182;4.474;2023-04-26T00:20:28;101921.25;;;5.59;75.50
72612;BME280;60655;52.182;4.474;2023-04-26T00:22:29;101910.44;;;5.70;75.68
72612;BME280;60655;52.182;4.474;2023-04-26T00:24:31;101917.63;;;5.60;75.82
72612;BME280;60655;52.182;4.474;2023-04-26T00:26:32;101918.88;;;5.82;76.45
72612;BME280;60655;52.182;4.474;2023-04-26T00:28:34;101910.59;;;5.69;76.46
72612;BME280;60655;52.182;4.474;2023-04-26T00:30:35;101906.16;;;5.69;76.83
72612;BME280;60655;52.182;4.474;2023-04-26T00:32:37;101911.31;;;5.53;77.04
72612;BME280;60655;52.182;4.474;2023-04-26T00:34:38;101914.25;;;5.42;77.46
72612;BME280;60655;52.182;4.474;2023-04-26T00:36:39;101911.03;;;5.30;77.85
72612;BME280;60655;52.182;4.474;2023-04-26T00:38:39;101914.19;;;5.34;77.86
72612;BME280;60655;52.182;4.474;2023-04-26T00:40:40;101921.31;;;5.41;77.50
72612;BME280;60655;52.182;4.474;2023-04-26T00:42:41;101922.53;;;5.29;78.16
72612;BME280;60655;52.182;4.474;2023-04-26T00:44:42;101918.47;;;5.35;78.11
72612;BME280;60655;52.182;4.474;2023-04-26T00:46:43;101916.06;;;5.24;78.05
72612;BME280;60655;52.182;4.474;2023-04-26T00:48:45;101916.00;;;5.33;78.25
72612;BME280;60655;52.182;4.474;2023-04-26T00:50:47;101918.31;;;5.36;77.77
72612;BME280;60655;52.182;4.474;2023-04-26T00:52:48;101915.16;;;5.33;78.24
72612;BME280;60655;52.182;4.474;2023-04-26T00:54:50;101919.50;;;5.42;78.08
72612;BME280;60655;52.182;4.474;2023-04-26T00:56:51;101912.53;;;5.33;78.42
72612;BME280;60655;52.182;4.474;2023-04-26T00:58:52;101921.47;;;5.40;78.52
72612;BME280;60655;52.182;4.474;2023-04-26T01:00:53;101902.44;;;5.28;78.41
72612;BME280;60655;52.182;4.474;2023-04-26T01:02:54;101916.59;;;5.53;78.78
72612;BME280;60655;52.182;4.474;2023-04-26T01:04:56;101915.53;;;5.38;78.60
72612;BME280;60655;52.182;4.474;2023-04-26T01:06:57;101909.66;;;5.00;78.91
72612;BME280;60655;52.182;4.474;2023-04-26T01:09:00;101914.75;;;5.46;79.56
72612;BME280;60655;52.182;4.474;2023-04-26T01:11:03;101904.22;;;5.20;79.52
72612;BME280;60655;52.182;4.474;2023-04-26T01:13:04;101912.97;;;5.28;80.14
72612;BME280;60655;52.182;4.474;2023-04-26T01:15:05;101909.81;;;5.17;80.60
72612;BME280;60655;52.182;4.474;2023-04-26T01:17:06;101914.84;;;4.92;79.79
72612;BME280;60655;52.182;4.474;2023-04-26T01:19:09;101907.72;;;5.02;80.67
72612;BME280;60655;52.182;4.474;2023-04-26T01:21:19;101909.44;;;4.94;80.59
72612;BME280;60655;52.182;4.474;2023-04-26T01:23:21;101916.28;;;5.04;80.69
72612;BME280;60655;52.182;4.474;2023-04-26T01:25:22;101912.59;;;4.97;80.19
72612;BME280;60655;52.182;4.474;2023-04-26T01:27:23;101914.88;;;4.74;80.12
72612;BME280;60655;52.182;4.474;2023-04-26T01:29:24;101920.34;;;4.99;80.02
72612;BME280;60655;52.182;4.474;2023-04-26T01:31:26;101915.38;;;4.96;79.63
72612;BME280;60655;52.182;4.474;2023-04-26T01:33:27;101911.56;;;4.72;80.61
72612;BME280;60655;52.182;4.474;2023-04-26T01:35:28;101909.50;;;4.58;81.01
72612;BME280;60655;52.182;4.474;2023-04-26T01:37:29;101910.75;;;4.72;81.40
72612;BME280;60655;52.182;4.474;2023-04-26T01:39:30;101904.97;;;4.68;81.29
72612;BME280;60655;52.182;4.474;2023-04-26T01:41:31;101906.16;;;4.74;80.88
72612;BME280;60655;52.182;4.474;2023-04-26T01:43:33;101906.63;;;4.69;80.88
72612;BME280;60655;52.182;4.474;2023-04-26T01:45:34;101905.31;;;4.91;81.05
72612;BME280;60655;52.182;4.474;2023-04-26T01:47:35;101907.66;;;4.77;81.10
72612;BME280;60655;52.182;4.474;2023-04-26T01:49:36;101910.16;;;4.78;81.23
72612;BME280;60655;52.182;4.474;2023-04-26T01:51:37;101905.34;;;4.73;81.04
72612;BME280;60655;52.182;4.474;2023-04-26T01:53:38;101905.78;;;4.69;81.00
72612;BME280;60655;52.182;4.474;2023-04-26T01:55:39;101907.38;;;4.80;80.84
72612;BME280;60655;52.182;4.474;2023-04-26T01:57:40;101905.88;;;4.59;80.91
72612;BME280;60655;52.182;4.474;2023-04-26T01:59:41;101911.56;;;4.72;81.08
72612;BME280;60655;52.182;4.474;2023-04-26T02:01:42;101906.56;;;4.61;81.17
72612;BME280;60655;52.182;4.474;2023-04-26T02:03:43;101908.94;;;4.72;81.36
72612;BME280;60655;52.182;4.474;2023-04-26T02:05:43;101909.84;;;4.63;81.47
72612;BME280;60655;52.182;4.474;2023-04-26T02:07:44;101906.03;;;4.58;81.88
72612;BME280;60655;52.182;4.474;2023-04-26T02:09:45;101906.47;;;4.53;81.75
72612;BME280;60655;52.182;4.474;2023-04-26T02:11:46;101907.69;;;4.59;81.95
72612;BME280;60655;52.182;4.474;2023-04-26T02:13:47;101910.16;;;4.78;82.10
72612;BME280;60655;52.182;4.474;2023-04-26T02:15:48;101906.00;;;4.75;81.80
72612;BME280;60655;52.182;4.474;2023-04-26T02:17:49;101901.44;;;4.60;81.64
72612;BME280;60655;52.182;4.474;2023-04-26T02:19:50;101905.56;;;4.62;81.79
72612;BME280;60655;52.182;4.474;2023-04-26T02:21:53;101902.78;;;4.82;82.36
72612;BME280;60655;52.182;4.474;2023-04-26T02:23:55;101901.22;;;4.53;82.58
72612;BME280;60655;52.182;4.474;2023-04-26T02:25:57;101894.44;;;4.33;82.69
72612;BME280;60655;52.182;4.474;2023-04-26T02:27:57;101901.50;;;4.50;82.51
72612;BME280;60655;52.182;4.474;2023-04-26T02:29:58;101903.09;;;4.61;82.60
72612;BME280;60655;52.182;4.474;2023-04-26T02:31:59;101901.28;;;4.44;82.39
72612;BME280;60655;52.182;4.474;2023-04-26T02:34:00;101901.66;;;4.49;83.33
72612;BME280;60655;52.182;4.474;2023-04-26T02:36:03;101906.25;;;4.47;82.33
72612;BME280;60655;52.182;4.474;2023-04-26T02:38:05;101902.41;;;4.41;82.92
72612;BME280;60655;52.182;4.474;2023-04-26T02:40:07;101902.16;;;4.34;83.20
72612;BME280;60655;52.182;4.474;2023-04-26T02:42:10;101897.72;;;4.35;83.13
72612;BME280;60655;52.182;4.474;2023-04-26T02:44:11;101901.50;;;4.32;83.31
72612;BME280;60655;52.182;4.474;2023-04-26T02:46:12;101895.47;;;4.40;82.54
72612;BME280;60655;52.182;4.474;2023-04-26T02:48:14;101897.38;;;4.30;82.61
72612;BME280;60655;52.182;4.474;2023-04-26T02:50:15;101903.06;;;4.25;82.76
72612;BME280;60655;52.182;4.474;2023-04-26T02:52:16;101897.53;;;4.46;83.11
72612;BME280;60655;52.182;4.474;2023-04-26T02:54:17;101897.53;;;4.28;82.76
72612;BME280;60655;52.182;4.474;2023-04-26T02:56:18;101893.97;;;4.37;82.92
72612;BME280;60655;52.182;4.474;2023-04-26T02:58:19;101891.50;;;4.18;83.31
72612;BME280;60655;52.182;4.474;2023-04-26T03:00:20;101888.94;;;4.26;83.38
72612;BME280;60655;52.182;4.474;2023-04-26T03:02:21;101890.13;;;4.14;83.43
72612;BME280;60655;52.182;4.474;2023-04-26T03:04:22;101888.91;;;4.08;83.38
72612;BME280;60655;52.182;4.474;2023-04-26T03:06:23;101891.78;;;4.15;83.29
72612;BME280;60655;52.182;4.474;2023-04-26T03:08:24;101891.78;;;4.15;83.35
72612;BME280;60655;52.182;4.474;2023-04-26T03:10:25;101887.31;;;4.25;83.61
72612;BME280;60655;52.182;4.474;2023-04-26T03:12:27;101891.44;;;4.28;83.40
72612;BME280;60655;52.182;4.474;2023-04-26T03:14:28;101888.47;;;4.13;83.57
72612;BME280;60655;52.182;4.474;2023-04-26T03:16:29;101896.72;;;4.00;84.13
72612;BME280;60655;52.182;4.474;2023-04-26T03:18:31;101893.19;;;4.10;83.81
72612;BME280;60655;52.182;4.474;2023-04-26T03:20:32;101889.59;;;4.11;83.87
72612;BME280;60655;52.182;4.474;2023-04-26T03:22:33;101892.59;;;4.16;84.22
72612;BME280;60655;52.182;4.474;2023-04-26T03:24:34;101891.63;;;3.99;84.26
72612;BME280;60655;52.182;4.474;2023-04-26T03:26:35;101892.97;;;4.03;84.43
72612;BME280;60655;52.182;4.474;2023-04-26T03:28:36;101895.22;;;3.98;84.78
72612;BME280;60655;52.182;4.474;2023-04-26T03:30:37;101893.31;;;3.90;84.73
72612;BME280;60655;52.182;4.474;2023-04-26T03:32:38;101888.84;;;4.18;84.42
72612;BME280;60655;52.182;4.474;2023-04-26T03:34:39;101892.22;;;4.11;83.68
72612;BME280;60655;52.182;4.474;2023-04-26T03:36:39;101886.47;;;4.25;84.37
72612;BME280;60655;52.182;4.474;2023-04-26T03:38:40;101881.41;;;4.14;84.56
72612;BME280;60655;52.182;4.474;2023-04-26T03:40:42;101892.19;;;3.93;84.94
72612;BME280;60655;52.182;4.474;2023-04-26T03:42:43;101886.84;;;3.85;85.14
72612;BME280;60655;52.182;4.474;2023-04-26T03:44:44;101879.44;;;3.98;85.12
72612;BME280;60655;52.182;4.474;2023-04-26T03:46:45;101884.34;;;3.83;84.60
72612;BME280;60655;52.182;4.474;2023-04-26T03:48:46;101882.97;;;4.06;84.63
72612;BME280;60655;52.182;4.474;2023-04-26T03:50:47;101875.91;;;4.07;84.40
72612;BME280;60655;52.182;4.474;2023-04-26T03:52:48;101875.72;;;4.18;84.52
72612;BME280;60655;52.182;4.474;2023-04-26T03:54:49;101865.03;;;4.02;84.72
72612;BME280;60655;52.182;4.474;2023-04-26T03:56:50;101864.84;;;3.86;85.33
72612;BME280;60655;52.182;4.474;2023-04-26T03:58:51;101874.53;;;3.85;85.49
72612;BME280;60655;52.182;4.474;2023-04-26T04:00:55;101871.34;;;3.82;85.48
72612;BME280;60655;52.182;4.474;2023-04-26T04:02:58;101870.81;;;3.78;85.44
72612;BME280;60655;52.182;4.474;2023-04-26T04:04:58;101876.81;;;3.70;85.47
72612;BME280;60655;52.182;4.474;2023-04-26T04:06:59;101873.66;;;3.67;85.33
72612;BME280;60655;52.182;4.474;2023-04-26T04:09:01;101871.91;;;3.85;84.90
72612;BME280;60655;52.182;4.474;2023-04-26T04:11:02;101870.34;;;3.92;83.93
72612;BME280;60655;52.182;4.474;2023-04-26T04:13:03;101872.47;;;3.79;84.20
72612;BME280;60655;52.182;4.474;2023-04-26T04:15:04;101869.63;;;3.72;84.66
72612;BME280;60655;52.182;4.474;2023-04-26T04:17:05;101872.75;;;3.76;84.86
72612;BME280;60655;52.182;4.474;2023-04-26T04:19:06;101867.06;;;3.81;85.15
72612;BME280;60655;52.182;4.474;2023-04-26T04:21:07;101867.38;;;3.78;85.08
72612;BME280;60655;52.182;4.474;2023-04-26T04:23:08;101876.06;;;3.78;85.23
72612;BME280;60655;52.182;4.474;2023-04-26T04:25:09;101872.25;;;3.72;85.25
72612;BME280;60655;52.182;4.474;2023-04-26T04:27:10;101876.72;;;3.62;85.24
72612;BME280;60655;52.182;4.474;2023-04-26T04:29:11;101875.50;;;3.84;85.29
72612;BME280;60655;52.182;4.474;2023-04-26T04:31:12;101876.66;;;3.99;84.50
72612;BME280;60655;52.182;4.474;2023-04-26T04:33:13;101884.34;;;3.83;84.34
72612;BME280;60655;52.182;4.474;2023-04-26T04:35:14;101879.88;;;3.66;84.44
72612;BME280;60655;52.182;4.474;2023-04-26T04:37:15;101883.53;;;3.83;85.11
72612;BME280;60655;52.182;4.474;2023-04-26T04:39:16;101878.69;;;3.78;85.08
72612;BME280;60655;52.182;4.474;2023-04-26T04:41:18;101880.72;;;3.66;85.04
72612;BME280;60655;52.182;4.474;2023-04-26T04:43:20;101882.66;;;3.92;84.95
72612;BME280;60655;52.182;4.474;2023-04-26T04:45:21;101889.06;;;3.80;84.97
72612;BME280;60655;52.182;4.474;2023-04-26T04:47:22;101886.53;;;3.88;85.10
72612;BME280;60655;52.182;4.474;2023-04-26T04:49:23;101893.31;;;3.90;85.13
72612;BME280;60655;52.182;4.474;2023-04-26T04:51:24;101888.06;;;3.90;84.29
72612;BME280;60655;52.182;4.474;2023-04-26T04:53:25;101887.88;;;4.19;85.27
72612;BME280;60655;52.182;4.474;2023-04-26T04:55:26;101892.22;;;4.11;85.09
72612;BME280;60655;52.182;4.474;2023-04-26T04:57:27;101886.63;;;4.41;85.97
72612;BME280;60655;52.182;4.474;2023-04-26T04:59:28;101889.53;;;4.38;85.06
72612;BME280;60655;52.182;4.474;2023-04-26T05:01:30;101889.41;;;4.57;86.09
72612;BME280;60655;52.182;4.474;2023-04-26T05:03:35;101890.41;;;4.56;85.37
72612;BME280;60655;52.182;4.474;2023-04-26T05:05:36;101890.44;;;4.64;84.87
72612;BME280;60655;52.182;4.474;2023-04-26T05:07:37;101892.94;;;4.66;84.74
72612;BME280;60655;52.182;4.474;2023-04-26T05:09:38;101892.63;;;4.69;85.45
72612;BME280;60655;52.182;4.474;2023-04-26T05:11:39;101884.72;;;4.69;85.66
72612;BME280;60655;52.182;4.474;2023-04-26T05:13:40;101873.81;;;4.82;85.63
72612;BME280;60655;52.182;4.474;2023-04-26T05:15:41;101880.25;;;5.05;85.36
72612;BME280;60655;52.182;4.474;2023-04-26T05:17:41;101885.72;;;5.12;85.15
72612;BME280;60655;52.182;4.474;2023-04-26T05:19:42;101886.34;;;5.05;85.00
72612;BME280;60655;52.182;4.474;2023-04-26T05:21:43;101883.03;;;5.03;85.28
72612;BME280;60655;52.182;4.474;2023-04-26T05:23:44;101881.31;;;5.20;83.79
72612;BME280;60655;52.182;4.474;2023-04-26T05:25:45;101887.75;;;5.18;84.60
72612;BME280;60655;52.182;4.474;2023-04-26T05:27:46;101888.13;;;5.31;84.99
72612;BME280;60655;52.182;4.474;2023-04-26T05:29:47;101884.28;;;5.17;84.79
72612;BME280;60655;52.182;4.474;2023-04-26T05:31:48;101887.31;;;5.30;84.82
72612;BME280;60655;52.182;4.474;2023-04-26T05:33:49;101887.69;;;5.35;84.16
72612;BME280;60655;52.182;4.474;2023-04-26T05:35:50;101888.81;;;5.33;84.15
72612;BME280;60655;52.182;4.474;2023-04-26T05:37:53;101897.63;;;5.24;83.83
72612;BME280;60655;52.182;4.474;2023-04-26T05:39:54;101898.31;;;5.26;84.14
72612;BME280;60655;52.182;4.474;2023-04-26T05:41:55;101898.44;;;5.42;83.61
72612;BME280;60655;52.182;4.474;2023-04-26T05:43:56;101900.09;;;5.51;83.75
72612;BME280;60655;52.182;4.474;2023-04-26T05:45:57;101906.84;;;5.46;83.63
72612;BME280;60655;52.182;4.474;2023-04-26T05:47:58;101911.47;;;5.52;83.57
72612;BME280;60655;52.182;4.474;2023-04-26T05:49:59;101898.72;;;5.65;83.52
72612;BME280;60655;52.182;4.474;2023-04-26T05:52:00;101901.38;;;5.73;83.25
72612;BME280;60655;52.182;4.474;2023-04-26T05:54:01;101904.53;;;5.85;83.00
72612;BME280;60655;52.182;4.474;2023-04-26T05:56:02;101898.09;;;6.05;82.63
72612;BME280;60655;52.182;4.474;2023-04-26T05:58:03;101894.31;;;6.16;82.04
72612;BME280;60655;52.182;4.474;2023-04-26T06:00:05;101897.31;;;6.29;81.37
72612;BME280;60655;52.182;4.474;2023-04-26T06:02:06;101903.25;;;6.39;80.52
72612;BME280;60655;52.182;4.474;2023-04-26T06:04:07;101897.34;;;6.53;80.03
72612;BME280;60655;52.182;4.474;2023-04-26T06:06:08;101905.44;;;6.52;79.00
72612;BME280;60655;52.182;4.474;2023-04-26T06:08:08;101902.13;;;6.58;78.25
72612;BME280;60655;52.182;4.474;2023-04-26T06:10:09;101895.69;;;6.68;76.68
72612;BME280;60655;52.182;4.474;2023-04-26T06:12:11;101909.91;;;6.75;75.31
72612;BME280;60655;52.182;4.474;2023-04-26T06:14:12;101907.25;;;6.84;75.53
72612;BME280;60655;52.182;4.474;2023-04-26T06:16:13;101912.84;;;7.05;76.31
72612;BME280;60655;52.182;4.474;2023-04-26T06:18:14;101922.28;;;7.16;75.83
72612;BME280;60655;52.182;4.474;2023-04-26T06:20:15;101918.16;;;7.13;74.94
72612;BME280;60655;52.182;4.474;2023-04-26T06:22:16;101922.94;;;7.01;74.76
72612;BME280;60655;52.182;4.474;2023-04-26T06:24:17;101920.78;;;6.97;74.82
72612;BME280;60655;52.182;4.474;2023-04-26T06:26:18;101919.97;;;6.96;75.06
72612;BME280;60655;52.182;4.474;2023-04-26T06:28:19;101923.44;;;7.13;75.34
72612;BME280;60655;52.182;4.474;2023-04-26T06:30:19;101923.91;;;7.00;75.79
72612;BME280;60655;52.182;4.474;2023-04-26T06:32:20;101928.41;;;6.92;76.09
72612;BME280;60655;52.182;4.474;2023-04-26T06:34:21;101929.69;;;7.04;76.19
72612;BME280;60655;52.182;4.474;2023-04-26T06:36:22;101936.28;;;7.24;74.24
72612;BME280;60655;52.182;4.474;2023-04-26T06:38:23;101930.38;;;7.14;72.71
72612;BME280;60655;52.182;4.474;2023-04-26T06:40:24;101937.13;;;7.17;73.16
72612;BME280;60655;52.182;4.474;2023-04-26T06:42:25;101934.00;;;7.21;74.74
72612;BME280;60655;52.182;4.474;2023-04-26T06:44:26;101924.75;;;7.17;72.78
72612;BME280;60655;52.182;4.474;2023-04-26T06:46:27;101924.59;;;7.02;70.64
72612;BME280;60655;52.182;4.474;2023-04-26T06:48:28;101929.88;;;7.10;71.80
72612;BME280;60655;52.182;4.474;2023-04-26T06:50:29;101918.97;;;7.05;72.13
72612;BME280;60655;52.182;4.474;2023-04-26T06:52:30;101928.38;;;7.08;72.11
72612;BME280;60655;52.182;4.474;2023-04-26T06:54:31;101921.63;;;7.22;72.50
72612;BME280;60655;52.182;4.474;2023-04-26T06:56:32;101915.13;;;7.32;72.19
72612;BME280;60655;52.182;4.474;2023-04-26T06:58:33;101920.75;;;7.37;72.20
72612;BME280;60655;52.182;4.474;2023-04-26T07:00:34;101920.75;;;7.45;71.94
72612;BME280;60655;52.182;4.474;2023-04-26T07:02:35;101928.50;;;7.47;71.58
72612;BME280;60655;52.182;4.474;2023-04-26T07:04:36;101923.16;;;7.55;70.80
72612;BME280;60655;52.182;4.474;2023-04-26T07:06:37;101932.59;;;7.58;71.02
72612;BME280;60655;52.182;4.474;2023-04-26T07:08:41;101933.91;;;7.62;66.79
72612;BME280;60655;52.182;4.474;2023-04-26T07:10:42;101930.44;;;7.61;68.76
72612;BME280;60655;52.182;4.474;2023-04-26T07:12:43;101928.94;;;7.59;68.51
72612;BME280;60655;52.182;4.474;2023-04-26T07:14:44;101927.28;;;7.74;68.21
72612;BME280;60655;52.182;4.474;2023-04-26T07:16:45;101930.63;;;7.52;64.93
72612;BME280;60655;52.182;4.474;2023-04-26T07:18:46;101938.91;;;7.32;65.62
72612;BME280;60655;52.182;4.474;2023-04-26T07:20:50;101940.41;;;7.35;64.37
72612;BME280;60655;52.182;4.474;2023-04-26T07:22:51;101949.34;;;7.26;66.55
72612;BME280;60655;52.182;4.474;2023-04-26T07:24:52;101944.38;;;7.23;64.61
72612;BME280;60655;52.182;4.474;2023-04-26T07:26:53;101945.91;;;7.17;63.55
72612;BME280;60655;52.182;4.474;2023-04-26T07:28:54;101943.38;;;7.40;62.91
72612;BME280;60655;52.182;4.474;2023-04-26T07:30:55;101936.22;;;7.65;64.37
72612;BME280;60655;52.182;4.474;2023-04-26T07:32:55;101938.88;;;7.57;60.01
72612;BME280;60655;52.182;4.474;2023-04-26T07:34:56;101935.91;;;7.52;58.62
72612;BME280;60655;52.182;4.474;2023-04-26T07:36:57;101936.72;;;7.60;59.00
72612;BME280;60655;52.182;4.474;2023-04-26T07:38:58;101945.28;;;7.70;60.17
72612;BME280;60655;52.182;4.474;2023-04-26T07:40:59;101938.84;;;7.65;61.81
72612;BME280;60655;52.182;4.474;2023-04-26T07:43:01;101940.34;;;7.59;58.86
72612;BME280;60655;52.182;4.474;2023-04-26T07:45:02;101934.28;;;7.51;58.38
72612;BME280;60655;52.182;4.474;2023-04-26T07:47:03;101940.00;;;7.62;60.76
72612;BME280;60655;52.182;4.474;2023-04-26T07:49:04;101942.16;;;7.59;61.94
72612;BME280;60655;52.182;4.474;2023-04-26T07:51:09;101930.31;;;7.47;60.67
72612;BME280;60655;52.182;4.474;2023-04-26T07:53:10;101943.78;;;7.76;58.73
72612;BME280;60655;52.182;4.474;2023-04-26T07:55:11;101946.38;;;7.84;57.64
72612;BME280;60655;52.182;4.474;2023-04-26T07:57:12;101936.75;;;7.99;60.99
72612;BME280;60655;52.182;4.474;2023-04-26T07:59:13;101946.44;;;8.15;60.16
72612;BME280;60655;52.182;4.474;2023-04-26T08:01:13;101939.13;;;8.17;58.77
72612;BME280;60655;52.182;4.474;2023-04-26T08:03:15;101945.06;;;8.27;56.88
72612;BME280;60655;52.182;4.474;2023-04-26T08:05:17;101948.03;;;8.32;60.91
72612;BME280;60655;52.182;4.474;2023-04-26T08:07:18;101945.25;;;8.57;57.97
72612;BME280;60655;52.182;4.474;2023-04-26T08:09:19;101941.34;;;8.67;57.17
72612;BME280;60655;52.182;4.474;2023-04-26T08:11:20;101946.06;;;8.57;56.67
72612;BME280;60655;52.182;4.474;2023-04-26T08:13:21;101942.72;;;8.63;56.94
72612;BME280;60655;52.182;4.474;2023-04-26T08:15:22;101954.72;;;8.51;56.94
72612;BME280;60655;52.182;4.474;2023-04-26T08:17:23;101951.03;;;8.60;59.46
72612;BME280;60655;52.182;4.474;2023-04-26T08:19:23;101948.94;;;8.70;59.67
72612;BME280;60655;52.182;4.474;2023-04-26T08:21:26;101943.81;;;8.69;57.62
72612;BME280;60655;52.182;4.474;2023-04-26T08:23:27;101950.19;;;8.60;61.48
72612;BME280;60655;52.182;4.474;2023-04-26T08:25:28;101956.53;;;8.73;58.66
72612;BME280;60655;52.182;4.474;2023-04-26T08:27:29;101948.28;;;8.68;57.99
72612;BME280;60655;52.182;4.474;2023-04-26T08:29:31;101949.78;;;8.71;58.16
72612;BME280;60655;52.182;4.474;2023-04-26T08:31:32;101946.41;;;8.77;58.17
72612;BME280;60655;52.182;4.474;2023-04-26T08:33:32;101956.66;;;8.80;58.87
72612;BME280;60655;52.182;4.474;2023-04-26T08:35:33;101944.94;;;8.74;60.40
72612;BME280;60655;52.182;4.474;2023-04-26T08:37:34;101956.66;;;8.80;58.28
72612;BME280;60655;52.182;4.474;2023-04-26T08:39:38;101950.66;;;8.63;56.71
72612;BME280;60655;52.182;4.474;2023-04-26T08:41:42;101953.94;;;8.42;56.97
72612;BME280;60655;52.182;4.474;2023-04-26T08:43:43;101953.06;;;8.50;57.47
72612;BME280;60655;52.182;4.474;2023-04-26T08:45:44;101947.03;;;8.64;58.42
72612;BME280;60655;52.182;4.474;2023-04-26T08:47:49;101952.66;;;8.61;57.96
72612;BME280;60655;52.182;4.474;2023-04-26T08:49:53;101952.75;;;8.45;57.08
72612;BME280;60655;52.182;4.474;2023-04-26T08:51:59;101952.41;;;8.48;57.20
72612;BME280;60655;52.182;4.474;2023-04-26T08:54:03;101960.00;;;8.51;58.36
72612;BME280;60655;52.182;4.474;2023-04-26T08:56:05;101950.94;;;8.68;59.37
72612;BME280;60655;52.182;4.474;2023-04-26T08:58:06;101951.31;;;8.65;58.71
72612;BME280;60655;52.182;4.474;2023-04-26T09:00:08;101947.72;;;8.58;58.10
72612;BME280;60655;52.182;4.474;2023-04-26T09:02:17;101953.25;;;8.71;60.33
72612;BME280;60655;52.182;4.474;2023-04-26T09:04:18;101957.19;;;8.75;59.01
72612;BME280;60655;52.182;4.474;2023-04-26T09:06:19;101958.47;;;9.02;58.67
72612;BME280;60655;52.182;4.474;2023-04-26T09:08:20;101955.09;;;8.94;57.25
72612;BME280;60655;52.182;4.474;2023-04-26T09:10:22;101957.75;;;8.94;57.33
72612;BME280;60655;52.182;4.474;2023-04-26T09:12:23;101945.09;;;8.96;57.73
72612;BME280;60655;52.182;4.474;2023-04-26T09:14:28;101952.16;;;8.89;59.32
72612;BME280;60655;52.182;4.474;2023-04-26T09:16:35;101954.88;;;8.95;58.36
72612;BME280;60655;52.182;4.474;2023-04-26T09:18:46;101955.41;;;9.13;59.42
72612;BME280;60655;52.182;4.474;2023-04-26T09:21:06;101950.47;;;9.25;57.16
72612;BME280;60655;52.182;4.474;2023-04-26T09:23:08;101958.72;;;9.30;58.34
72612;BME280;60655;52.182;4.474;2023-04-26T09:25:11;101950.44;;;9.48;57.43
72612;BME280;60655;52.182;4.474;2023-04-26T09:27:13;101956.94;;;9.60;55.04
72612;BME280;60655;52.182;4.474;2023-04-26T09:29:18;101946.97;;;9.62;55.58
72612;BME280;60655;52.182;4.474;2023-04-26T09:31:41;101947.06;;;9.98;53.02
72612;BME280;60655;52.182;4.474;2023-04-26T09:33:59;101946.78;;;9.93;55.43
72612;BME280;60655;52.182;4.474;2023-04-26T09:36:12;101953.97;;;10.14;49.96
72612;BME280;60655;52.182;4.474;2023-04-26T09:38:15;101943.41;;;9.99;48.89
72612;BME280;60655;52.182;4.474;2023-04-26T09:40:18;101938.09;;;9.99;49.46
72612;BME280;60655;52.182;4.474;2023-04-26T09:42:19;101945.41;;;9.53;51.47
72612;BME280;60655;52.182;4.474;2023-04-26T09:44:21;101942.03;;;9.89;50.12
72612;BME280;60655;52.182;4.474;2023-04-26T09:46:23;101942.91;;;10.25;44.74
72612;BME280;60655;52.182;4.474;2023-04-26T09:48:26;101937.81;;;10.45;48.42
72612;BME280;60655;52.182;4.474;2023-04-26T09:50:30;101932.34;;;10.68;48.43
72612;BME280;60655;52.182;4.474;2023-04-26T09:52:41;101925.13;;;10.83;48.59
72612;BME280;60655;52.182;4.474;2023-04-26T09:54:53;101937.81;;;10.45;47.39
72612;BME280;60655;52.182;4.474;2023-04-26T09:57:00;101936.31;;;10.57;48.78
72612;BME280;60655;52.182;4.474;2023-04-26T09:59:03;101935.34;;;10.43;48.94
72612;BME280;60655;52.182;4.474;2023-04-26T10:01:07;101941.56;;;10.51;48.21
72612;BME280;60655;52.182;4.474;2023-04-26T10:03:08;101936.44;;;10.49;48.49
72612;BME280;60655;52.182;4.474;2023-04-26T10:05:09;101938.06;;;10.29;47.85
72612;BME280;60655;52.182;4.474;2023-04-26T10:07:11;101936.03;;;10.16;49.15
72612;BME280;60655;52.182;4.474;2023-04-26T10:09:13;101937.06;;;10.30;48.50
72612;BME280;60655;52.182;4.474;2023-04-26T10:11:16;101934.88;;;10.04;50.22
72612;BME280;60655;52.182;4.474;2023-04-26T10:13:18;101945.22;;;9.55;50.82
72612;BME280;60655;52.182;4.474;2023-04-26T10:15:19;101948.91;;;9.68;50.99
72612;BME280;60655;52.182;4.474;2023-04-26T10:17:20;101939.75;;;9.71;51.04
72612;BME280;60655;52.182;4.474;2023-04-26T10:19:21;101947.81;;;9.77;51.19
72612;BME280;60655;52.182;4.474;2023-04-26T10:21:34;101945.13;;;9.63;50.65
72612;BME280;60655;52.182;4.474;2023-04-26T10:23:37;101940.91;;;9.54;52.97
72612;BME280;60655;52.182;4.474;2023-04-26T10:25:39;101946.06;;;9.70;52.48
72612;BME280;60655;52.182;4.474;2023-04-26T10:34:21;101947.34;;;9.74;53.73
72612;BME280;60655;52.182;4.474;2023-04-26T10:36:22;101947.41;;;9.95;54.34
72612;BME280;60655;52.182;4.474;2023-04-26T10:38:23;101948.50;;;10.15;52.27
72612;BME280;60655;52.182;4.474;2023-04-26T10:40:37;101945.13;;;10.07;52.86
72612;BME280;60655;52.182;4.474;2023-04-26T10:42:38;101949.66;;;10.42;50.98
72612;BME280;60655;52.182;4.474;2023-04-26T10:44:40;101948.19;;;9.74;53.51
72612;BME280;60655;52.182;4.474;2023-04-26T10:46:42;101940.47;;;10.09;53.38
72612;BME280;60655;52.182;4.474;2023-04-26T10:48:43;101942.50;;;10.43;50.60
72612;BME280;60655;52.182;4.474;2023-04-26T10:53:08;101933.78;;;10.49;50.57